Time;durP1;ratioP1;P1;durP2;ratioP2;P2;SDS_P1;SDS_P2;PMS_P1;PMS_P2;Temp;Humidity;BMP_temperature;BMP_pressure;BME280_temperature;BME280_humidity;BME280_pressure;Samples;Min_cycle;Max_cycle;Signal;HPM_P1;HPM_P2
2022/06/09 00:00:42;;;;;;;6.12;4.80;;;;;;;21.01;65.39;99580.86;1453561;88;21448;-84
2022/06/09 00:03:11;;;;;;;;;;;;;;;20.99;65.36;99577.05;1450586;88;21524;-84
2022/06/09 00:05:39;;;;;;;4.92;4.03;;;;;;;20.94;65.74;99567.52;1472683;88;20823;-84
2022/06/09 00:08:06;;;;;;;6.45;4.62;;;;;;;20.92;65.12;99568.30;1475881;87;22431;-84
2022/06/09 00:10:41;;;;;;;5.17;4.08;;;;;;;20.89;65.32;99565.55;1473218;88;21485;-84
2022/06/09 00:13:07;;;;;;;6.17;4.35;;;;;;;20.89;65.32;99570.12;1470251;88;21478;-84
2022/06/09 00:15:34;;;;;;;5.00;4.50;;;;;;;20.87;65.38;99568.19;1469289;88;21471;-84
2022/06/09 00:18:00;;;;;;;5.70;3.52;;;;;;;20.87;65.84;99566.84;1473064;88;21434;-85
2022/06/09 00:24:14;;;;;;;7.87;3.95;;;;;;;20.90;66.37;99565.02;1461742;88;21574;-85
2022/06/09 00:26:41;;;;;;;6.80;4.05;;;;;;;20.90;65.98;99560.98;1463636;87;22440;-85
2022/06/09 00:29:07;;;;;;;6.67;4.15;;;;;;;20.84;66.53;99560.59;1470060;88;21463;-85
2022/06/09 00:31:33;;;;;;;8.98;4.15;;;;;;;20.80;66.37;99559.41;1465426;88;21893;-85
2022/06/09 00:33:59;;;;;;;4.92;4.10;;;;;;;20.76;66.52;99560.41;1465883;88;21692;-86
2022/06/09 00:36:26;;;;;;;5.22;4.47;;;;;;;20.72;67.02;99557.38;1474276;88;21636;-86
2022/06/09 00:38:52;;;;;;;10.98;5.42;;;;;;;20.71;67.18;99561.14;1459030;87;22452;-85
2022/06/09 00:41:19;;;;;;;6.72;4.10;;;;;;;20.69;67.66;99559.20;1465228;88;21610;-85
2022/06/09 00:43:45;;;;;;;5.00;4.08;;;;;;;20.69;67.93;99558.39;1469275;88;21551;-85
2022/06/09 00:46:20;;;;;;;4.95;3.77;;;;;;;20.69;67.98;99553.02;1470330;87;23725;-85
2022/06/09 00:48:57;;;;;;;7.75;4.10;;;;;;;20.68;67.86;99550.83;1451674;89;21552;-87
2022/06/09 00:51:38;;;;;;;9.53;5.05;;;;;;;20.68;67.65;99552.17;1465111;88;21685;-85
2022/06/09 00:54:10;;;;;;;;;;;;;;;20.67;67.28;99548.39;1467512;87;22410;-84
2022/06/09 00:56:42;;;;;;;6.78;4.47;;;;;;;20.62;67.83;99547.73;1475233;88;20362;-84
2022/06/09 00:59:11;;;;;;;8.10;4.70;;;;;;;20.60;67.25;99547.17;1468886;87;21678;-85
2022/06/09 01:01:38;;;;;;;9.18;5.10;;;;;;;20.53;67.58;99539.73;1458291;88;21625;-84
2022/06/09 01:04:09;;;;;;;4.85;4.40;;;;;;;20.47;67.67;99542.80;1492656;87;21626;-85
2022/06/09 01:06:47;;;;;;;6.92;3.87;;;;;;;20.46;68.09;99545.74;1470535;87;21610;-86
2022/06/09 01:09:18;;;;;;;4.25;3.30;;;;;;;20.44;68.43;99546.49;1482781;88;21930;-85
2022/06/09 01:11:50;;;;;;;5.22;4.05;;;;;;;20.36;69.27;99546.84;1481140;87;22395;-85
2022/06/09 01:14:22;;;;;;;6.78;4.47;;;;;;;20.30;69.60;99536.49;1478404;87;21469;-84
2022/06/09 01:17:10;;;;;;;6.60;4.40;;;;;;;20.21;69.82;99548.11;1475453;88;21485;-84
2022/06/09 01:20:15;;;;;;;12.60;4.50;;;;;;;20.19;69.54;99554.23;1474448;88;22637;-85
2022/06/09 01:23:33;;;;;;;5.12;4.60;;;;;;;20.18;69.58;99555.81;1483998;87;22096;-84
2022/06/09 01:26:30;;;;;;;6.57;4.33;;;;;;;20.17;69.50;99564.41;1471497;87;21529;-85
2022/06/09 01:29:26;;;;;;;6.20;3.95;;;;;;;20.18;69.60;99568.72;1465850;88;22533;-86
2022/06/09 01:32:13;;;;;;;5.50;4.17;;;;;;;20.20;69.91;99564.47;1473933;88;21469;-82
2022/06/09 01:35:18;;;;;;;4.97;4.47;;;;;;;20.19;69.73;99567.66;1480107;87;21507;-82
2022/06/09 01:37:48;;;;;;;5.55;4.97;;;;;;;20.16;69.72;99561.41;1482856;87;22433;-83
2022/06/09 01:40:17;;;;;;;4.83;4.30;;;;;;;20.10;69.92;99548.91;1468964;87;21648;-82
2022/06/09 01:42:49;;;;;;;7.80;5.37;;;;;;;20.06;69.69;99547.22;1475008;88;22505;-83
2022/06/09 01:45:30;;;;;;;6.50;4.50;;;;;;;20.01;69.80;99542.23;1481119;87;21825;-83
2022/06/09 01:48:10;;;;;;;4.87;4.40;;;;;;;19.98;70.18;99548.08;1483661;88;21396;-83
2022/06/09 01:51:11;;;;;;;9.65;4.67;;;;;;;19.97;70.45;99550.48;1473876;88;21603;-83
2022/06/09 01:53:46;;;;;;;5.37;4.83;;;;;;;19.97;70.46;99543.23;1481166;87;21530;-83
2022/06/09 01:56:30;;;;;;;4.87;4.47;;;;;;;19.97;70.30;99551.29;1478339;86;21478;-83
2022/06/09 01:59:01;;;;;;;5.10;4.60;;;;;;;19.92;70.76;99544.44;1469727;88;21574;-83
2022/06/09 02:01:35;;;;;;;5.67;5.10;;;;;;;19.89;70.64;99552.14;1476124;87;21640;-83
2022/06/09 02:04:16;;;;;;;9.07;5.47;;;;;;;19.81;71.25;99548.73;1463276;87;22468;-83
2022/06/09 02:06:42;;;;;;;;;;;;;;;19.76;71.18;99550.46;1473510;88;22622;-83
2022/06/09 02:09:09;;;;;;;6.87;4.90;;;;;;;19.72;71.38;99548.77;1469614;88;20371;-83
2022/06/09 02:11:52;;;;;;;4.83;4.10;;;;;;;19.74;71.72;99549.36;1463717;88;21478;-83
2022/06/09 02:14:21;;;;;;;6.97;4.57;;;;;;;19.77;71.84;99547.56;1460579;89;22350;-83
2022/06/09 02:16:47;;;;;;;5.93;5.30;;;;;;;19.82;71.79;99554.41;1472507;88;21485;-83
2022/06/09 02:19:14;;;;;;;10.43;5.23;;;;;;;19.86;72.03;99562.00;1472837;87;21536;-83
2022/06/09 02:21:40;;;;;;;5.50;5.10;;;;;;;19.88;71.85;99567.94;1473754;88;23440;-83
2022/06/09 02:24:08;;;;;;;8.87;5.60;;;;;;;19.88;71.80;99561.23;1484178;88;21508;-83
2022/06/09 02:26:34;;;;;;;7.83;4.80;;;;;;;19.88;71.84;99570.12;1470957;88;21426;-83
2022/06/09 02:29:01;;;;;;;5.65;4.87;;;;;;;19.91;71.96;99572.85;1479388;88;21493;-83
2022/06/09 02:31:28;;;;;;;8.13;4.97;;;;;;;19.92;72.40;99581.22;1477857;88;21485;-83
2022/06/09 02:33:55;;;;;;;5.33;4.83;;;;;;;19.92;72.55;99576.66;1465245;88;21522;-84
2022/06/09 02:36:22;;;;;;;5.67;5.17;;;;;;;19.94;72.54;99573.73;1482854;87;21537;-84
2022/06/09 02:38:48;;;;;;;5.80;5.30;;;;;;;19.93;72.38;99583.66;1479231;87;22998;-84
2022/06/09 02:41:15;;;;;;;7.00;5.33;;;;;;;19.94;72.12;99581.79;1467363;88;21477;-84
2022/06/09 02:43:42;;;;;;;9.10;5.53;;;;;;;19.91;72.19;99583.59;1468989;88;21389;-84
2022/06/09 02:46:09;;;;;;;13.13;6.13;;;;;;;19.89;72.28;99584.37;1460508;89;21596;-84
2022/06/09 02:48:35;;;;;;;6.37;5.07;;;;;;;19.88;72.47;99582.70;1459103;88;22372;-84
2022/06/09 02:51:18;;;;;;;6.33;4.90;;;;;;;19.87;72.80;99583.24;1456666;88;21493;-84
2022/06/09 02:53:45;;;;;;;9.40;5.50;;;;;;;19.87;72.80;99592.64;1457628;88;22299;-84
2022/06/09 02:56:11;;;;;;;10.18;6.00;;;;;;;19.90;72.42;99590.02;1453183;88;21514;-83
2022/06/09 02:58:37;;;;;;;6.27;5.67;;;;;;;19.91;72.34;99584.94;1464673;88;21485;-83
2022/06/09 03:01:03;;;;;;;7.60;6.45;;;;;;;19.90;72.16;99590.84;1478004;88;22321;-83
2022/06/09 03:03:29;;;;;;;7.90;6.20;;;;;;;19.88;72.20;99584.90;1473134;88;21536;-83
2022/06/09 03:05:55;;;;;;;7.90;6.33;;;;;;;19.86;72.29;99592.88;1488222;87;22343;-83
2022/06/09 03:08:21;;;;;;;9.37;5.70;;;;;;;19.85;72.77;99589.35;1478848;87;21559;-83
2022/06/09 03:10:47;;;;;;;9.55;5.37;;;;;;;19.85;72.87;99590.70;1474559;88;23035;-83
2022/06/09 03:13:13;;;;;;;7.12;5.40;;;;;;;19.82;73.13;99588.47;1466954;88;22372;-83
2022/06/09 03:15:40;;;;;;;6.83;5.83;;;;;;;19.82;72.77;99593.84;1468525;88;21448;-83
2022/06/09 03:18:06;;;;;;;7.57;6.17;;;;;;;19.80;72.73;99593.27;1489405;88;21456;-83
2022/06/09 03:20:34;;;;;;;7.13;6.50;;;;;;;19.77;72.58;99593.20;1483124;87;21570;-81
2022/06/09 03:23:00;;;;;;;6.47;5.83;;;;;;;19.74;72.81;99592.31;1464532;88;21539;-85
2022/06/09 03:25:26;;;;;;;7.03;6.08;;;;;;;19.72;73.20;99595.74;1445213;89;21470;-85
2022/06/09 03:27:52;;;;;;;8.28;6.72;;;;;;;19.70;73.43;99595.14;1476266;88;21995;-86
2022/06/09 03:30:19;;;;;;;6.40;5.80;;;;;;;19.69;73.71;99598.07;1475475;88;21448;-85
2022/06/09 03:32:45;;;;;;;7.70;6.57;;;;;;;19.69;73.54;99599.41;1473992;88;22469;-86
2022/06/09 03:35:12;;;;;;;9.53;6.27;;;;;;;19.67;73.52;99600.97;1482500;87;21500;-85
2022/06/09 03:37:38;;;;;;;8.30;7.50;;;;;;;19.63;73.58;99593.58;1474194;87;22389;-85
2022/06/09 03:40:07;;;;;;;12.53;6.40;;;;;;;19.60;73.47;99595.66;1474034;88;21492;-86
2022/06/09 03:42:34;;;;;;;8.55;6.58;;;;;;;19.58;73.85;99595.06;1481835;87;21426;-86
2022/06/09 03:45:01;;;;;;;15.93;5.93;;;;;;;19.57;74.12;99593.44;1461888;88;21544;-86
2022/06/09 03:47:27;;;;;;;8.60;6.50;;;;;;;19.56;74.24;99595.84;1462469;88;21456;-84
2022/06/09 03:49:55;;;;;;;8.73;6.83;;;;;;;19.57;74.53;99589.94;1480445;88;21516;-84
2022/06/09 03:52:22;;;;;;;8.73;6.93;;;;;;;19.58;74.13;99594.25;1488096;87;21536;-84
2022/06/09 03:54:49;;;;;;;9.57;7.60;;;;;;;19.56;74.45;99596.33;1479837;88;22445;-84
2022/06/09 03:57:15;;;;;;;8.70;7.27;;;;;;;19.57;74.66;99606.04;1478931;87;21485;-84
2022/06/09 03:59:42;;;;;;;7.90;6.83;;;;;;;19.60;75.57;99609.61;1470090;88;21470;-85
2022/06/09 04:02:08;;;;;;;9.20;6.00;;;;;;;19.64;75.66;99606.76;1465975;88;21483;-85
2022/06/09 04:04:35;;;;;;;8.87;6.10;;;;;;;19.72;75.79;99603.80;1478213;87;21500;-85
2022/06/09 04:07:01;;;;;;;12.87;6.70;;;;;;;19.80;75.53;99615.56;1460365;88;22483;-84
2022/06/09 04:09:27;;;;;;;6.62;6.00;;;;;;;19.88;74.98;99609.56;1472765;87;21509;-84
2022/06/09 04:11:53;;;;;;;8.43;7.17;;;;;;;19.96;74.83;99614.09;1448507;89;21517;-84
2022/06/09 04:14:19;;;;;;;11.73;6.70;;;;;;;20.05;74.52;99619.95;1453368;87;21472;-84
2022/06/09 04:16:45;;;;;;;10.50;6.75;;;;;;;20.10;74.39;99614.72;1466641;88;21507;-85
2022/06/09 04:19:16;;;;;;;18.02;6.62;;;;;;;20.11;74.75;99608.31;1461552;88;21463;-84
2022/06/09 04:21:44;;;;;;;12.68;7.47;;;;;;;20.17;74.70;99611.92;1492069;88;22830;-83
2022/06/09 04:24:11;;;;;;;11.90;6.97;;;;;;;20.23;74.62;99609.16;1486314;87;21433;-84
2022/06/09 04:26:40;;;;;;;12.15;7.05;;;;;;;20.31;74.57;99619.25;1480278;87;22645;-83
2022/06/09 04:29:11;;;;;;;10.80;7.42;;;;;;;20.38;74.19;99615.95;1475711;87;21573;-83
2022/06/09 04:31:38;;;;;;;13.38;7.22;;;;;;;20.48;73.91;99620.22;1471321;88;21633;-83
2022/06/09 04:34:04;;;;;;;10.80;7.37;;;;;;;20.56;73.67;99625.28;1477462;87;21751;-83
2022/06/09 04:36:31;;;;;;;11.22;7.67;;;;;;;20.60;73.44;99620.25;1481488;87;21651;-83
2022/06/09 04:38:57;;;;;;;11.68;7.55;;;;;;;20.62;73.51;99618.16;1468407;88;21610;-83
2022/06/09 04:41:23;;;;;;;12.33;7.08;;;;;;;20.65;73.61;99615.81;1483741;87;21655;-83
2022/06/09 04:43:49;;;;;;;12.75;6.97;;;;;;;20.70;73.51;99620.51;1466063;87;22394;-84
2022/06/09 04:46:20;;;;;;;10.48;6.55;;;;;;;20.74;73.28;99620.32;1462734;88;22484;-83
2022/06/09 04:48:46;;;;;;;12.68;7.17;;;;;;;20.77;72.86;99616.34;1477129;88;21551;-84
2022/06/09 04:51:19;;;;;;;21.15;7.67;;;;;;;20.80;72.50;99627.98;1462462;88;21445;-84
2022/06/09 04:53:47;;;;;;;11.53;7.67;;;;;;;20.82;72.34;99623.20;1462644;89;21629;-83
2022/06/09 04:56:14;;;;;;;13.50;7.10;;;;;;;20.82;72.51;99616.47;1473538;88;21590;-84
2022/06/09 04:58:41;;;;;;;19.10;7.12;;;;;;;20.82;72.70;99621.84;1484020;88;21597;-84
2022/06/09 05:01:18;;;;;;;21.75;6.42;;;;;;;20.86;72.69;99627.88;1468647;89;21486;-84
2022/06/09 05:03:46;;;;;;;11.68;7.10;;;;;;;20.91;73.30;99625.81;1466175;88;21499;-84
2022/06/09 05:06:12;;;;;;;12.00;6.72;;;;;;;21.01;72.48;99627.40;1475792;87;21559;-85
2022/06/09 05:08:40;;;;;;;14.00;6.80;;;;;;;21.09;72.29;99629.73;1459689;88;21471;-85
2022/06/09 05:11:07;;;;;;;10.30;6.35;;;;;;;21.16;71.83;99627.72;1487619;87;21478;-84
2022/06/09 05:13:34;;;;;;;9.33;6.20;;;;;;;21.18;71.32;99628.31;1476183;88;21552;-84
2022/06/09 05:16:00;;;;;;;6.78;6.12;;;;;;;21.18;70.97;99627.50;1466880;88;22365;-83
2022/06/09 05:18:29;;;;;;;9.30;5.65;;;;;;;21.16;70.98;99637.14;1476745;88;21486;-89
2022/06/09 05:20:57;;;;;;;6.80;5.60;;;;;;;21.17;70.89;99633.92;1482449;88;21507;-84
2022/06/09 05:23:24;;;;;;;9.05;5.35;;;;;;;21.18;71.14;99635.04;1482767;87;21712;-84
2022/06/09 05:25:53;;;;;;;9.05;5.25;;;;;;;21.21;71.32;99628.37;1479347;88;21694;-83
2022/06/09 05:28:21;;;;;;;6.60;4.83;;;;;;;21.27;71.16;99631.45;1461285;88;21508;-84
2022/06/09 05:30:47;;;;;;;8.30;4.45;;;;;;;21.33;70.84;99621.62;1471481;88;21500;-86
2022/06/09 05:33:14;;;;;;;6.05;5.50;;;;;;;21.44;70.47;99622.69;1464412;86;21493;-86
2022/06/09 05:35:40;;;;;;;5.75;5.17;;;;;;;21.55;69.94;99619.95;1466180;88;21508;-87
2022/06/09 05:46:22;;;;;;;6.17;5.58;;;;;;;22.25;68.26;99631.49;1484311;88;21658;-83
2022/06/09 05:48:49;;;;;;;8.83;5.70;;;;;;;22.49;67.81;99623.52;1478509;87;21529;-83
2022/06/09 05:51:17;;;;;;;7.28;5.60;;;;;;;22.65;66.84;99621.09;1470602;88;22506;-84
2022/06/09 05:53:44;;;;;;;19.45;6.47;;;;;;;22.88;66.10;99619.53;1458152;89;22506;-85
2022/06/09 05:56:10;;;;;;;9.35;6.15;;;;;;;22.88;66.10;99610.09;1485791;88;21493;-89
2022/06/09 05:58:37;;;;;;;9.65;5.10;;;;;;;22.93;65.60;99618.27;1486326;87;21456;-88
2022/06/09 06:01:07;;;;;;;12.88;6.60;;;;;;;23.08;65.40;99629.02;1483837;87;21463;-90
2022/06/09 06:03:39;;;;;;;64.05;8.58;;;;;;;23.16;65.08;99623.16;1480611;88;21469;-88
2022/06/09 06:08:53;;;;;;;5.92;5.37;;;;;;;23.25;64.29;99623.04;1454684;88;21521;-89
2022/06/09 06:11:20;;;;;;;47.58;9.28;;;;;;;23.28;64.20;99623.89;1485053;87;22430;-88
2022/06/09 06:13:46;;;;;;;15.75;6.47;;;;;;;23.31;63.94;99626.09;1478313;87;21585;-91
2022/06/09 06:16:13;;;;;;;6.90;5.40;;;;;;;23.30;63.68;99623.08;1474592;86;21718;-91
2022/06/09 06:18:39;;;;;;;7.90;6.40;;;;;;;23.43;63.64;99624.61;1479157;87;22430;-91
2022/06/09 06:21:06;;;;;;;11.08;5.72;;;;;;;23.50;63.14;99623.05;1483896;88;21492;-90
2022/06/09 06:23:32;;;;;;;10.23;5.70;;;;;;;23.53;62.92;99623.90;1474033;87;21523;-91
2022/06/09 06:25:59;;;;;;;30.92;6.80;;;;;;;23.69;62.73;99630.30;1462444;87;21575;-91
2022/06/09 06:28:27;;;;;;;10.95;5.42;;;;;;;23.79;62.60;99631.24;1452325;88;24358;-92
2022/06/09 06:30:54;;;;;;;7.10;5.87;;;;;;;23.83;62.18;99633.73;1451574;88;21615;-90
2022/06/09 06:33:22;;;;;;;9.13;5.50;;;;;;;23.85;61.81;99634.30;1446023;90;21486;-90
2022/06/09 06:35:49;;;;;;;8.13;5.62;;;;;;;23.85;61.50;99638.36;1461508;88;21566;-89
2022/06/09 06:38:15;;;;;;;9.78;5.35;;;;;;;23.89;61.20;99639.20;1450189;88;21634;-92
2022/06/09 06:40:42;;;;;;;9.13;6.25;;;;;;;23.93;61.15;99637.61;1449501;88;21464;-91
2022/06/09 06:43:09;;;;;;;10.65;4.83;;;;;;;24.02;61.37;99632.02;1470864;87;21479;-91
2022/06/09 06:45:35;;;;;;;5.95;5.35;;;;;;;24.08;61.43;99632.34;1470857;87;22412;-91
2022/06/09 06:48:01;;;;;;;7.40;5.72;;;;;;;24.10;60.85;99636.97;1451858;89;21465;-91
2022/06/09 06:50:27;;;;;;;12.05;5.15;;;;;;;24.11;60.83;99633.21;1464703;88;21946;-93
2022/06/09 06:52:54;;;;;;;38.50;7.53;;;;;;;24.08;60.64;99638.59;1474142;86;21405;-92
2022/06/09 06:55:23;;;;;;;7.83;5.60;;;;;;;24.08;60.57;99635.05;1449861;90;21560;-92
2022/06/09 06:57:50;;;;;;;31.07;8.53;;;;;;;24.01;60.15;99639.86;1459753;88;21559;-90
2022/06/09 07:00:21;;;;;;;6.85;5.47;;;;;;;24.01;60.46;99638.50;1465291;88;21389;-90
2022/06/09 07:02:50;;;;;;;6.17;5.35;;;;;;;23.98;60.18;99640.37;1470616;87;22997;-92
2022/06/09 07:05:19;;;;;;;6.62;4.65;;;;;;;23.92;60.22;99637.34;1405542;88;21361;-91
2022/06/09 07:07:45;;;;;;;20.15;6.42;;;;;;;23.92;60.33;99640.05;1375764;90;22518;-92
2022/06/09 07:10:13;;;;;;;14.40;5.78;;;;;;;24.01;60.46;99645.27;1414619;90;21671;-92
2022/06/09 07:12:40;;;;;;;19.48;6.25;;;;;;;24.15;60.21;99641.08;1453354;90;21560;-91
2022/06/09 07:15:09;;;;;;;8.50;5.12;;;;;;;24.28;60.12;99633.91;1463383;88;22601;-90
2022/06/09 07:17:35;;;;;;;10.03;5.78;;;;;;;24.45;59.82;99631.62;1468006;87;21637;-91
2022/06/09 07:20:02;;;;;;;7.50;5.87;;;;;;;24.55;59.23;99623.60;1464010;88;21530;-93
2022/06/09 07:22:28;;;;;;;8.90;4.47;;;;;;;24.68;58.93;99627.20;1407748;87;21419;-92
2022/06/09 07:24:55;;;;;;;8.35;5.42;;;;;;;24.76;57.79;99628.06;1477376;88;21383;-92
2022/06/09 07:27:23;;;;;;;7.30;5.70;;;;;;;24.86;57.53;99631.91;1434902;88;21407;-92
2022/06/09 07:29:51;;;;;;;8.33;5.37;;;;;;;24.97;57.11;99625.48;1442745;90;21514;-94
2022/06/09 07:32:18;;;;;;;10.28;5.45;;;;;;;25.24;57.33;99611.06;1449011;88;21471;-91
2022/06/09 07:34:45;;;;;;;7.47;4.45;;;;;;;25.55;57.18;99604.67;1417791;88;21465;-91
2022/06/09 07:37:12;;;;;;;7.03;5.17;;;;;;;25.63;56.01;99608.74;1375714;89;21542;-90
2022/06/09 07:39:38;;;;;;;7.72;4.67;;;;;;;25.79;55.59;99602.84;1454684;89;21501;-90
2022/06/09 07:42:05;;;;;;;7.70;4.58;;;;;;;25.96;55.41;99601.27;1376780;89;21361;-90
2022/06/09 07:44:31;;;;;;;37.75;6.15;;;;;;;26.13;54.47;99606.44;1432017;88;21626;-92
2022/06/09 07:46:57;;;;;;;11.05;5.05;;;;;;;26.20;54.03;99609.69;1451709;87;22973;-86
2022/06/09 07:49:23;;;;;;;5.47;4.37;;;;;;;26.24;53.65;99603.47;1466591;87;21383;-90
2022/06/09 07:51:49;;;;;;;12.18;4.97;;;;;;;26.21;52.80;99605.36;1460929;88;22336;-89
2022/06/09 07:54:15;;;;;;;11.33;4.65;;;;;;;26.22;52.75;99604.81;1471491;88;21456;-90
2022/06/09 07:56:42;;;;;;;15.30;6.08;;;;;;;26.14;52.73;99606.70;1425596;91;22471;-90
2022/06/09 07:59:08;;;;;;;14.28;5.12;;;;;;;26.22;53.14;99609.69;1426788;91;22919;-90
2022/06/09 08:01:36;;;;;;;8.00;4.70;;;;;;;26.28;52.88;99609.16;1425366;91;21560;-90
2022/06/09 08:04:03;;;;;;;5.65;4.72;;;;;;;26.28;52.58;99609.16;1422577;91;21495;-90
2022/06/09 08:06:31;;;;;;;4.78;4.37;;;;;;;26.31;52.19;99605.89;1424359;91;21507;-91
2022/06/09 08:09:00;;;;;;;8.25;4.20;;;;;;;26.43;52.40;99608.33;1425886;91;22034;-90
2022/06/09 08:11:32;;;;;;;17.67;5.65;;;;;;;26.58;51.72;99610.24;1426776;91;21597;-91
2022/06/09 08:14:01;;;;;;;16.07;6.20;;;;;;;26.75;52.29;99614.28;1474984;88;21450;-91
2022/06/09 08:16:28;;;;;;;7.72;4.50;;;;;;;26.92;51.77;99604.48;1474405;88;21463;-92
2022/06/09 08:18:55;;;;;;;55.83;9.80;;;;;;;26.86;49.88;99604.23;1427603;91;21590;-90
2022/06/09 08:21:21;;;;;;;11.95;4.50;;;;;;;27.11;50.61;99610.14;1429531;91;22951;-90
2022/06/09 08:23:48;;;;;;;14.70;5.42;;;;;;;27.31;50.08;99605.20;1412836;91;21590;-91
2022/06/09 08:26:14;;;;;;;23.07;6.55;;;;;;;27.32;49.86;99607.38;1449937;90;21531;-90
2022/06/09 08:28:40;;;;;;;7.00;4.00;;;;;;;27.35;49.44;99605.45;1446223;89;21575;-90
2022/06/09 08:31:06;;;;;;;5.87;3.85;;;;;;;27.42;49.19;99605.43;1423013;91;22383;-93
2022/06/09 08:33:32;;;;;;;4.00;3.30;;;;;;;27.48;48.77;99608.94;1423796;90;21481;-95
2022/06/09 08:36:00;;;;;;;8.98;4.28;;;;;;;27.48;48.38;99605.38;1430169;91;22514;-92
2022/06/09 08:38:26;;;;;;;38.30;6.50;;;;;;;27.42;48.36;99608.70;1429787;90;21654;-94
2022/06/09 08:41:35;;;;;;;19.48;6.00;;;;;;;27.43;48.34;99609.77;1430795;90;21592;-87
2022/06/09 08:44:18;;;;;;;9.68;3.90;;;;;;;27.40;48.53;99610.88;1429515;90;21458;-86
2022/06/09 08:46:56;;;;;;;4.47;3.75;;;;;;;27.36;48.75;99612.50;1433396;90;21481;-87
2022/06/09 08:49:45;;;;;;;8.50;3.62;;;;;;;27.26;48.55;99611.20;1448811;90;21510;-87
2022/06/09 08:52:43;;;;;;;6.35;4.92;;;;;;;27.36;48.31;99602.99;1430569;90;22443;-86
2022/06/09 08:55:38;;;;;;;5.20;3.60;;;;;;;27.29;48.51;99601.94;1449906;90;21503;-85
2022/06/09 08:58:25;;;;;;;13.40;4.47;;;;;;;27.33;48.65;99598.92;1449742;90;21570;-84
2022/06/09 09:01:12;;;;;;;10.95;4.08;;;;;;;27.72;48.30;99606.35;1432016;90;21518;-86
2022/06/09 09:03:49;;;;;;;6.65;4.00;;;;;;;28.07;47.26;99600.44;1425389;91;21474;-87
2022/06/09 09:06:38;;;;;;;12.70;3.87;;;;;;;28.43;47.11;99601.55;1427747;91;21518;-86
2022/06/09 09:09:22;;;;;;;13.72;3.55;;;;;;;28.71;46.25;99593.90;1427814;91;21422;-86
2022/06/09 09:12:13;;;;;;;4.97;3.65;;;;;;;28.87;44.62;99593.20;1437342;90;21632;-86
2022/06/09 09:14:59;;;;;;;9.38;3.77;;;;;;;28.57;44.48;99595.70;1455020;89;21595;-85
2022/06/09 09:17:56;;;;;;;23.67;4.85;;;;;;;28.30;45.08;99596.98;1443449;88;21723;-91
2022/06/09 09:20:30;;;;;;;6.10;3.90;;;;;;;28.12;46.08;99585.45;1429543;91;22573;-88
2022/06/09 09:23:16;;;;;;;5.53;3.40;;;;;;;28.33;45.98;99588.80;1429255;91;22483;-88
2022/06/09 09:26:06;;;;;;;7.15;3.42;;;;;;;28.18;44.08;99587.03;1453204;89;22609;-91
2022/06/09 09:28:41;;;;;;;4.87;3.37;;;;;;;28.46;45.25;99581.93;1452426;88;21523;-88
2022/06/09 09:31:20;;;;;;;6.97;3.45;;;;;;;28.15;43.36;99582.70;1446288;89;21544;-91
2022/06/09 09:33:46;;;;;;;3.77;3.30;;;;;;;28.48;45.08;99571.55;1373812;90;21412;-90
2022/06/09 09:36:24;;;;;;;26.73;3.98;;;;;;;28.71;43.59;99568.59;1399208;90;21390;-89
2022/06/09 09:39:01;;;;;;;4.00;3.00;;;;;;;28.79;43.18;99568.77;1533680;88;21505;-92
2022/06/09 09:41:34;;;;;;;4.97;2.83;;;;;;;28.98;43.44;99568.04;1385682;89;22685;-89
2022/06/09 09:44:20;;;;;;;4.30;2.90;;;;;;;29.14;42.66;99554.50;1487480;89;22338;-90
2022/06/09 09:46:54;;;;;;;6.97;3.10;;;;;;;28.87;41.70;99562.45;1381907;90;22212;-89
2022/06/09 09:49:43;;;;;;;5.37;2.92;;;;;;;28.50;42.40;99559.83;1556654;87;22219;-89
2022/06/09 09:52:40;;;;;;;7.97;3.25;;;;;;;28.25;43.09;99555.41;1555890;87;21575;-90
2022/06/09 09:55:39;;;;;;;5.72;2.90;;;;;;;28.12;43.58;99551.45;1547972;88;22418;-89
2022/06/09 09:58:20;;;;;;;7.85;3.22;;;;;;;27.92;43.67;99550.25;1556789;88;21457;-89
2022/06/09 10:00:53;;;;;;;6.72;2.70;;;;;;;27.92;43.84;99554.33;1555369;87;21324;-88
2022/06/09 10:09:26;;;;;;;6.83;2.77;;;;;;;27.89;43.54;99542.11;1502892;88;21383;-89
2022/06/09 10:12:01;;;;;;;4.15;3.42;;;;;;;28.32;43.14;99540.38;1556716;87;22336;-90
2022/06/09 10:14:36;;;;;;;3.15;2.83;;;;;;;28.72;43.71;99538.38;1556013;87;22477;-90
2022/06/09 10:17:09;;;;;;;4.85;3.25;;;;;;;28.66;42.11;99540.89;1480020;87;21316;-89
2022/06/09 10:19:35;;;;;;;18.82;7.15;;;;;;;28.46;42.66;99528.86;1402538;88;21456;-88
2022/06/09 10:22:19;;;;;;;12.23;4.42;;;;;;;28.52;43.78;99533.15;1469034;88;21427;-89
2022/06/09 10:25:02;;;;;;;7.40;3.45;;;;;;;28.91;42.79;99523.43;1482172;87;22781;-87
2022/06/09 10:27:38;;;;;;;10.40;2.83;;;;;;;29.22;42.15;99519.80;1402050;88;22396;-88
2022/06/09 10:30:12;;;;;;;7.50;2.98;;;;;;;29.41;41.61;99516.30;1555448;88;21457;-90
2022/06/09 10:33:01;;;;;;;30.08;3.75;;;;;;;29.48;41.24;99516.72;1556083;87;21384;-90
2022/06/09 10:35:51;;;;;;;5.72;2.60;;;;;;;29.80;41.33;99511.89;1547419;88;21397;-89
2022/06/09 10:38:40;;;;;;;6.12;3.47;;;;;;;30.20;40.33;99505.48;1503002;87;21397;-90
2022/06/09 10:41:10;;;;;;;;;;;;;;;30.57;40.40;99492.83;1557707;87;21346;-90
2022/06/09 10:44:12;;;;;;;8.00;2.65;;;;;;;30.62;38.30;99494.66;1517136;88;20231;-87
2022/06/09 10:55:14;;;;;;;7.90;2.65;;;;;;;30.71;39.60;99492.84;1461842;87;21493;-88
2022/06/09 10:55:41;;;;;;;3.27;2.52;;;;;;;30.35;39.74;99480.70;1476954;87;21581;-82
2022/06/09 10:58:37;;;;;;;4.42;2.98;;;;;;;30.49;38.12;99469.77;1476196;88;21506;-83
2022/06/09 11:01:04;;;;;;;5.83;2.58;;;;;;;30.60;38.03;99470.38;1480071;88;21546;-82
2022/06/09 11:03:43;;;;;;;11.00;2.95;;;;;;;30.62;38.64;99469.53;1471644;87;21501;-81
2022/06/09 11:06:26;;;;;;;4.50;3.30;;;;;;;30.78;38.67;99457.72;1473117;88;21971;-82
2022/06/09 11:09:25;;;;;;;6.83;2.42;;;;;;;30.98;38.40;99462.77;1467871;87;21478;-82
2022/06/09 11:12:08;;;;;;;9.23;2.58;;;;;;;30.97;38.65;99453.53;1446362;87;21665;-83
2022/06/09 11:14:42;;;;;;;4.00;2.85;;;;;;;30.67;38.06;99452.21;1424352;91;21437;-85
2022/06/09 11:17:43;;;;;;;6.78;3.20;;;;;;;30.48;37.65;99450.97;1418805;90;22376;-88
2022/06/09 11:20:51;;;;;;;6.83;3.27;;;;;;;30.37;37.73;99444.90;1424329;92;21459;-87
2022/06/09 11:23:41;;;;;;;3.97;2.90;;;;;;;30.12;39.76;99444.78;1422336;92;21530;-87
2022/06/09 11:26:28;;;;;;;4.22;3.08;;;;;;;29.78;39.70;99435.57;1416109;91;21518;-86
2022/06/09 11:29:51;;;;;;;6.33;3.00;;;;;;;29.53;40.46;99432.14;1417585;92;22369;-86
2022/06/09 11:32:47;;;;;;;2.30;2.20;;;;;;;29.51;41.09;99429.46;1413800;91;21502;-87
2022/06/09 11:35:38;;;;;;;4.95;2.75;;;;;;;29.60;39.04;99433.92;1417077;91;21488;-87
2022/06/09 11:38:25;;;;;;;7.30;2.87;;;;;;;29.54;39.43;99429.67;1450173;90;21758;-87
2022/06/09 11:41:14;;;;;;;6.20;3.12;;;;;;;30.10;40.35;99428.73;1450375;90;22457;-87
2022/06/09 11:43:56;;;;;;;;;;;;;;;30.52;39.73;99430.94;1449420;89;22413;-87
2022/06/09 11:46:33;;;;;;;21.62;6.67;;;;;;;30.33;38.00;99441.17;1454236;89;20402;-87
2022/06/09 11:49:05;;;;;;;28.62;8.03;;;;;;;29.87;42.31;99449.60;1463396;88;21633;-94
2022/06/09 11:51:33;;;;;;;19.12;6.75;;;;;;;29.18;49.06;99456.11;1463199;89;21530;-85
2022/06/09 11:54:07;;;;;;;23.35;5.67;;;;;;;28.78;50.27;99457.45;1461249;89;21516;-93
2022/06/09 11:56:44;;;;;;;69.03;7.90;;;;;;;28.39;51.63;99452.16;1415967;92;21501;-91
2022/06/09 11:59:24;;;;;;;20.92;4.85;;;;;;;27.95;52.68;99455.32;1470505;89;21444;-91
2022/06/09 12:02:02;;;;;;;17.98;5.28;;;;;;;27.56;54.79;99453.42;1405133;92;21650;-91
2022/06/09 12:04:38;;;;;;;9.55;4.53;;;;;;;27.10;57.19;99448.82;1420107;92;21557;-91
2022/06/09 12:07:45;;;;;;;7.17;5.10;;;;;;;26.50;60.71;99440.16;1415421;92;21539;-91
2022/06/09 12:10:39;;;;;;;11.43;5.60;;;;;;;26.53;61.22;99438.24;1460383;88;21597;-92
2022/06/09 12:13:25;;;;;;;6.90;4.67;;;;;;;26.87;60.34;99426.67;1467568;88;21604;-93
2022/06/09 12:16:27;;;;;;;6.20;4.53;;;;;;;27.17;59.72;99426.28;1463904;88;21450;-93
2022/06/09 12:19:20;;;;;;;6.55;4.20;;;;;;;27.33;59.75;99418.27;1397428;93;21480;-92
2022/06/09 12:21:51;;;;;;;7.50;3.90;;;;;;;27.63;58.07;99418.59;1401835;93;21508;-91
2022/06/09 12:24:26;;;;;;;7.17;4.03;;;;;;;27.85;56.87;99414.09;1434990;89;21442;-90
2022/06/09 12:26:56;;;;;;;5.28;4.08;;;;;;;28.24;55.47;99412.33;1464980;89;21924;-89